sensor_id;sensor_type;location;lat;lon;timestamp;P1;durP1;ratioP1;P2;durP2;ratioP2
5955;SDS011;3004;48.080;11.600;2023-08-21T00:00:28;79.13;;;3.20;;
5955;SDS011;3004;48.080;11.600;2023-08-21T00:02:55;80.10;;;3.93;;
5955;SDS011;3004;48.080;11.600;2023-08-21T00:05:23;79.70;;;3.40;;
5955;SDS011;3004;48.080;11.600;2023-08-21T00:07:50;79.67;;;3.30;;
5955;SDS011;3004;48.080;11.600;2023-08-21T00:10:17;80.37;;;3.50;;
5955;SDS011;3004;48.080;11.600;2023-08-21T00:12:44;80.10;;;4.13;;
5955;SDS011;3004;48.080;11.600;2023-08-21T00:15:12;80.73;;;4.37;;
5955;SDS011;3004;48.080;11.600;2023-08-21T00:17:40;80.37;;;4.23;;
5955;SDS011;3004;48.080;11.600;2023-08-21T00:20:09;79.67;;;3.70;;
5955;SDS011;3004;48.080;11.600;2023-08-21T00:22:37;79.90;;;3.90;;
5955;SDS011;3004;48.080;11.600;2023-08-21T00:25:04;79.60;;;3.40;;
5955;SDS011;3004;48.080;11.600;2023-08-21T00:27:31;84.77;;;4.13;;
5955;SDS011;3004;48.080;11.600;2023-08-21T00:30:00;80.20;;;3.70;;
5955;SDS011;3004;48.080;11.600;2023-08-21T00:32:31;80.50;;;3.80;;
5955;SDS011;3004;48.080;11.600;2023-08-21T00:34:58;80.20;;;3.60;;
5955;SDS011;3004;48.080;11.600;2023-08-21T00:37:25;80.80;;;3.90;;
5955;SDS011;3004;48.080;11.600;2023-08-21T00:39:52;80.07;;;3.50;;
5955;SDS011;3004;48.080;11.600;2023-08-21T00:42:22;80.60;;;3.50;;
5955;SDS011;3004;48.080;11.600;2023-08-21T00:44:49;80.07;;;3.37;;
5955;SDS011;3004;48.080;11.600;2023-08-21T00:47:16;80.73;;;3.50;;
5955;SDS011;3004;48.080;11.600;2023-08-21T00:49:47;80.20;;;3.33;;
5955;SDS011;3004;48.080;11.600;2023-08-21T00:52:14;80.30;;;3.50;;
5955;SDS011;3004;48.080;11.600;2023-08-21T00:54:42;88.17;;;4.17;;
5955;SDS011;3004;48.080;11.600;2023-08-21T00:57:09;81.87;;;3.73;;
5955;SDS011;3004;48.080;11.600;2023-08-21T00:59:37;81.27;;;4.27;;
5955;SDS011;3004;48.080;11.600;2023-08-21T01:02:04;80.37;;;3.60;;
5955;SDS011;3004;48.080;11.600;2023-08-21T01:04:31;82.10;;;4.23;;
5955;SDS011;3004;48.080;11.600;2023-08-21T01:06:59;80.27;;;3.43;;
5955;SDS011;3004;48.080;11.600;2023-08-21T01:09:29;80.77;;;3.57;;
5955;SDS011;3004;48.080;11.600;2023-08-21T01:12:06;81.40;;;4.33;;
5955;SDS011;3004;48.080;11.600;2023-08-21T01:14:43;81.40;;;3.87;;
5955;SDS011;3004;48.080;11.600;2023-08-21T01:17:15;81.10;;;3.60;;
5955;SDS011;3004;48.080;11.600;2023-08-21T01:19:46;81.07;;;3.57;;
5955;SDS011;3004;48.080;11.600;2023-08-21T01:22:17;81.47;;;4.27;;
5955;SDS011;3004;48.080;11.600;2023-08-21T01:24:47;81.20;;;3.40;;
5955;SDS011;3004;48.080;11.600;2023-08-21T01:27:14;81.37;;;3.60;;
5955;SDS011;3004;48.080;11.600;2023-08-21T01:29:42;80.87;;;3.30;;
5955;SDS011;3004;48.080;11.600;2023-08-21T01:32:10;82.87;;;4.87;;
5955;SDS011;3004;48.080;11.600;2023-08-21T01:34:46;82.37;;;3.60;;
5955;SDS011;3004;48.080;11.600;2023-08-21T01:37:13;80.50;;;3.50;;
5955;SDS011;3004;48.080;11.600;2023-08-21T01:39:41;86.40;;;4.53;;
5955;SDS011;3004;48.080;11.600;2023-08-21T01:42:09;80.77;;;3.40;;
5955;SDS011;3004;48.080;11.600;2023-08-21T01:44:36;80.47;;;3.50;;
5955;SDS011;3004;48.080;11.600;2023-08-21T01:47:03;83.23;;;4.93;;
5955;SDS011;3004;48.080;11.600;2023-08-21T01:49:31;82.40;;;4.57;;
5955;SDS011;3004;48.080;11.600;2023-08-21T01:51:58;80.57;;;3.50;;
5955;SDS011;3004;48.080;11.600;2023-08-21T01:54:28;80.43;;;3.53;;
5955;SDS011;3004;48.080;11.600;2023-08-21T01:56:55;80.77;;;3.50;;
5955;SDS011;3004;48.080;11.600;2023-08-21T01:59:23;80.77;;;3.57;;
5955;SDS011;3004;48.080;11.600;2023-08-21T02:01:53;80.87;;;3.40;;
5955;SDS011;3004;48.080;11.600;2023-08-21T02:04:20;80.57;;;3.57;;
5955;SDS011;3004;48.080;11.600;2023-08-21T02:06:48;80.70;;;3.50;;
5955;SDS011;3004;48.080;11.600;2023-08-21T02:09:15;80.87;;;3.70;;
5955;SDS011;3004;48.080;11.600;2023-08-21T02:11:42;80.87;;;3.47;;
5955;SDS011;3004;48.080;11.600;2023-08-21T02:14:11;83.40;;;4.73;;
5955;SDS011;3004;48.080;11.600;2023-08-21T02:16:41;80.67;;;3.50;;
5955;SDS011;3004;48.080;11.600;2023-08-21T02:19:08;81.30;;;3.90;;
5955;SDS011;3004;48.080;11.600;2023-08-21T02:21:35;82.03;;;4.00;;
5955;SDS011;3004;48.080;11.600;2023-08-21T02:24:02;82.30;;;4.47;;
5955;SDS011;3004;48.080;11.600;2023-08-21T02:26:30;81.30;;;3.67;;
5955;SDS011;3004;48.080;11.600;2023-08-21T02:28:57;81.27;;;3.70;;
5955;SDS011;3004;48.080;11.600;2023-08-21T02:31:24;81.27;;;3.53;;
5955;SDS011;3004;48.080;11.600;2023-08-21T02:33:52;81.33;;;3.60;;
5955;SDS011;3004;48.080;11.600;2023-08-21T02:36:19;81.90;;;3.80;;
5955;SDS011;3004;48.080;11.600;2023-08-21T02:38:46;81.77;;;3.53;;
5955;SDS011;3004;48.080;11.600;2023-08-21T02:41:13;81.27;;;3.60;;
5955;SDS011;3004;48.080;11.600;2023-08-21T02:43:43;81.20;;;3.43;;
5955;SDS011;3004;48.080;11.600;2023-08-21T02:46:10;81.00;;;3.50;;
5955;SDS011;3004;48.080;11.600;2023-08-21T02:48:37;81.07;;;3.80;;
5955;SDS011;3004;48.080;11.600;2023-08-21T02:51:06;81.70;;;4.27;;
5955;SDS011;3004;48.080;11.600;2023-08-21T02:53:33;81.10;;;3.80;;
5955;SDS011;3004;48.080;11.600;2023-08-21T02:55:59;83.17;;;5.30;;
5955;SDS011;3004;48.080;11.600;2023-08-21T02:58:27;81.97;;;3.90;;
5955;SDS011;3004;48.080;11.600;2023-08-21T03:00:54;81.13;;;3.40;;
5955;SDS011;3004;48.080;11.600;2023-08-21T03:03:21;81.10;;;3.40;;
5955;SDS011;3004;48.080;11.600;2023-08-21T03:05:50;82.23;;;4.17;;
5955;SDS011;3004;48.080;11.600;2023-08-21T03:08:18;82.33;;;4.13;;
5955;SDS011;3004;48.080;11.600;2023-08-21T03:10:45;81.17;;;3.47;;
5955;SDS011;3004;48.080;11.600;2023-08-21T03:13:12;81.47;;;3.70;;
5955;SDS011;3004;48.080;11.600;2023-08-21T03:18:29;81.50;;;3.50;;
5955;SDS011;3004;48.080;11.600;2023-08-21T03:20:58;83.63;;;3.60;;
5955;SDS011;3004;48.080;11.600;2023-08-21T03:23:27;84.10;;;4.57;;
5955;SDS011;3004;48.080;11.600;2023-08-21T03:25:54;85.40;;;4.00;;
5955;SDS011;3004;48.080;11.600;2023-08-21T03:28:22;83.37;;;4.27;;
5955;SDS011;3004;48.080;11.600;2023-08-21T03:30:49;85.20;;;4.43;;
5955;SDS011;3004;48.080;11.600;2023-08-21T03:33:19;84.43;;;5.90;;
5955;SDS011;3004;48.080;11.600;2023-08-21T03:35:46;82.80;;;4.23;;
5955;SDS011;3004;48.080;11.600;2023-08-21T03:38:19;82.27;;;3.60;;
5955;SDS011;3004;48.080;11.600;2023-08-21T03:40:47;82.27;;;4.20;;
5955;SDS011;3004;48.080;11.600;2023-08-21T03:43:14;82.50;;;3.90;;
5955;SDS011;3004;48.080;11.600;2023-08-21T03:45:41;82.30;;;3.80;;
5955;SDS011;3004;48.080;11.600;2023-08-21T03:48:09;82.47;;;3.57;;
5955;SDS011;3004;48.080;11.600;2023-08-21T03:50:38;82.87;;;3.90;;
5955;SDS011;3004;48.080;11.600;2023-08-21T03:53:05;82.80;;;4.00;;
5955;SDS011;3004;48.080;11.600;2023-08-21T03:55:32;82.37;;;3.67;;
5955;SDS011;3004;48.080;11.600;2023-08-21T03:58:02;82.47;;;4.20;;
5955;SDS011;3004;48.080;11.600;2023-08-21T04:00:30;83.27;;;5.03;;
5955;SDS011;3004;48.080;11.600;2023-08-21T04:02:58;82.27;;;3.60;;
5955;SDS011;3004;48.080;11.600;2023-08-21T04:05:25;83.90;;;4.63;;
5955;SDS011;3004;48.080;11.600;2023-08-21T04:07:52;83.27;;;3.73;;
5955;SDS011;3004;48.080;11.600;2023-08-21T04:10:21;83.17;;;3.90;;
5955;SDS011;3004;48.080;11.600;2023-08-21T04:12:48;85.23;;;4.57;;
5955;SDS011;3004;48.080;11.600;2023-08-21T04:15:18;83.17;;;3.73;;
5955;SDS011;3004;48.080;11.600;2023-08-21T04:17:46;83.50;;;4.20;;
5955;SDS011;3004;48.080;11.600;2023-08-21T04:20:15;83.27;;;3.73;;
5955;SDS011;3004;48.080;11.600;2023-08-21T04:22:50;83.80;;;4.30;;
5955;SDS011;3004;48.080;11.600;2023-08-21T04:25:19;83.20;;;3.90;;
5955;SDS011;3004;48.080;11.600;2023-08-21T04:27:47;83.17;;;3.87;;
5955;SDS011;3004;48.080;11.600;2023-08-21T04:30:16;86.57;;;4.40;;
5955;SDS011;3004;48.080;11.600;2023-08-21T04:32:43;83.67;;;3.83;;
5955;SDS011;3004;48.080;11.600;2023-08-21T04:35:10;87.10;;;5.77;;
5955;SDS011;3004;48.080;11.600;2023-08-21T04:37:42;89.90;;;6.00;;
5955;SDS011;3004;48.080;11.600;2023-08-21T04:40:10;96.43;;;5.27;;
5955;SDS011;3004;48.080;11.600;2023-08-21T04:42:46;87.53;;;5.57;;
5955;SDS011;3004;48.080;11.600;2023-08-21T04:45:13;84.50;;;4.20;;
5955;SDS011;3004;48.080;11.600;2023-08-21T04:47:42;84.37;;;3.80;;
5955;SDS011;3004;48.080;11.600;2023-08-21T04:50:09;83.97;;;4.37;;
5955;SDS011;3004;48.080;11.600;2023-08-21T04:52:43;84.57;;;4.00;;
5955;SDS011;3004;48.080;11.600;2023-08-21T04:55:11;84.73;;;4.20;;
5955;SDS011;3004;48.080;11.600;2023-08-21T04:57:38;84.87;;;4.50;;
5955;SDS011;3004;48.080;11.600;2023-08-21T05:00:06;84.53;;;4.17;;
5955;SDS011;3004;48.080;11.600;2023-08-21T05:02:36;84.67;;;4.40;;
5955;SDS011;3004;48.080;11.600;2023-08-21T05:05:03;84.87;;;4.23;;
5955;SDS011;3004;48.080;11.600;2023-08-21T05:07:31;84.93;;;4.13;;
5955;SDS011;3004;48.080;11.600;2023-08-21T05:09:58;86.27;;;5.47;;
5955;SDS011;3004;48.080;11.600;2023-08-21T05:12:28;84.87;;;4.23;;
5955;SDS011;3004;48.080;11.600;2023-08-21T05:14:57;84.57;;;4.10;;
5955;SDS011;3004;48.080;11.600;2023-08-21T05:17:26;85.20;;;4.20;;
5955;SDS011;3004;48.080;11.600;2023-08-21T05:19:56;85.40;;;4.77;;
5955;SDS011;3004;48.080;11.600;2023-08-21T05:22:23;85.10;;;4.20;;
5955;SDS011;3004;48.080;11.600;2023-08-21T05:24:50;85.43;;;4.40;;
5955;SDS011;3004;48.080;11.600;2023-08-21T05:27:20;85.77;;;4.80;;
5955;SDS011;3004;48.080;11.600;2023-08-21T05:29:47;86.57;;;5.00;;
5955;SDS011;3004;48.080;11.600;2023-08-21T05:32:16;87.07;;;4.70;;
5955;SDS011;3004;48.080;11.600;2023-08-21T05:34:43;86.13;;;4.70;;
5955;SDS011;3004;48.080;11.600;2023-08-21T05:37:13;86.20;;;4.40;;
5955;SDS011;3004;48.080;11.600;2023-08-21T05:39:40;86.47;;;4.57;;
5955;SDS011;3004;48.080;11.600;2023-08-21T05:42:09;86.17;;;4.40;;
5955;SDS011;3004;48.080;11.600;2023-08-21T05:44:42;86.47;;;4.67;;
5955;SDS011;3004;48.080;11.600;2023-08-21T05:47:09;88.47;;;5.07;;
5955;SDS011;3004;48.080;11.600;2023-08-21T05:49:38;87.37;;;5.30;;
5955;SDS011;3004;48.080;11.600;2023-08-21T05:52:05;86.53;;;4.60;;
5955;SDS011;3004;48.080;11.600;2023-08-21T05:54:34;86.43;;;4.60;;
5955;SDS011;3004;48.080;11.600;2023-08-21T05:57:01;87.80;;;6.10;;
5955;SDS011;3004;48.080;11.600;2023-08-21T05:59:29;86.70;;;4.90;;
5955;SDS011;3004;48.080;11.600;2023-08-21T06:01:57;86.37;;;4.40;;
5955;SDS011;3004;48.080;11.600;2023-08-21T06:04:25;86.57;;;4.50;;
5955;SDS011;3004;48.080;11.600;2023-08-21T06:06:52;87.10;;;5.53;;
5955;SDS011;3004;48.080;11.600;2023-08-21T06:09:19;88.37;;;6.13;;
5955;SDS011;3004;48.080;11.600;2023-08-21T06:11:55;85.40;;;4.40;;
5955;SDS011;3004;48.080;11.600;2023-08-21T06:14:23;85.90;;;4.80;;
5955;SDS011;3004;48.080;11.600;2023-08-21T06:16:53;88.80;;;5.90;;
5955;SDS011;3004;48.080;11.600;2023-08-21T06:19:21;88.43;;;4.40;;
5955;SDS011;3004;48.080;11.600;2023-08-21T06:21:47;84.97;;;4.30;;
5955;SDS011;3004;48.080;11.600;2023-08-21T06:24:14;84.30;;;4.20;;
5955;SDS011;3004;48.080;11.600;2023-08-21T06:26:42;84.57;;;4.67;;
5955;SDS011;3004;48.080;11.600;2023-08-21T06:35:59;83.40;;;4.40;;
5955;SDS011;3004;48.080;11.600;2023-08-21T06:39:04;83.37;;;4.30;;
5955;SDS011;3004;48.080;11.600;2023-08-21T06:42:29;83.63;;;4.30;;
5955;SDS011;3004;48.080;11.600;2023-08-21T06:46:50;83.83;;;4.27;;
5955;SDS011;3004;48.080;11.600;2023-08-21T06:55:59;82.30;;;4.43;;
5955;SDS011;3004;48.080;11.600;2023-08-21T07:02:22;82.20;;;4.73;;
5955;SDS011;3004;48.080;11.600;2023-08-21T07:11:57;79.27;;;4.63;;
5955;SDS011;3004;48.080;11.600;2023-08-21T07:15:05;78.20;;;3.50;;
5955;SDS011;3004;48.080;11.600;2023-08-21T07:18:11;79.40;;;4.20;;
5955;SDS011;3004;48.080;11.600;2023-08-21T07:21:12;78.27;;;3.60;;
5955;SDS011;3004;48.080;11.600;2023-08-21T07:27:40;81.27;;;4.63;;
5955;SDS011;3004;48.080;11.600;2023-08-21T07:37:39;76.90;;;3.77;;
5955;SDS011;3004;48.080;11.600;2023-08-21T07:54:56;79.23;;;5.43;;
5955;SDS011;3004;48.080;11.600;2023-08-21T08:39:29;78.83;;;3.47;;
5955;SDS011;3004;48.080;11.600;2023-08-21T08:42:41;76.70;;;2.50;;
5955;SDS011;3004;48.080;11.600;2023-08-21T08:47:54;77.10;;;3.63;;
5955;SDS011;3004;48.080;11.600;2023-08-21T09:33:51;77.20;;;2.70;;
5955;SDS011;3004;48.080;11.600;2023-08-21T09:43:56;77.87;;;3.00;;
5955;SDS011;3004;48.080;11.600;2023-08-21T09:46:53;77.50;;;2.33;;
5955;SDS011;3004;48.080;11.600;2023-08-21T09:50:24;78.20;;;2.97;;
5955;SDS011;3004;48.080;11.600;2023-08-21T09:53:03;76.13;;;2.83;;
5955;SDS011;3004;48.080;11.600;2023-08-21T09:55:32;77.00;;;2.10;;
5955;SDS011;3004;48.080;11.600;2023-08-21T09:57:59;77.47;;;3.03;;
5955;SDS011;3004;48.080;11.600;2023-08-21T10:00:30;77.20;;;2.10;;
5955;SDS011;3004;48.080;11.600;2023-08-21T10:03:01;77.30;;;2.03;;
5955;SDS011;3004;48.080;11.600;2023-08-21T10:05:30;78.90;;;2.87;;
5955;SDS011;3004;48.080;11.600;2023-08-21T10:07:58;77.30;;;2.30;;
5955;SDS011;3004;48.080;11.600;2023-08-21T10:10:29;88.53;;;3.30;;
5955;SDS011;3004;48.080;11.600;2023-08-21T10:12:58;77.47;;;2.97;;
5955;SDS011;3004;48.080;11.600;2023-08-21T10:15:25;77.60;;;2.60;;
5955;SDS011;3004;48.080;11.600;2023-08-21T10:17:57;76.10;;;2.40;;
5955;SDS011;3004;48.080;11.600;2023-08-21T10:20:41;78.87;;;2.50;;
5955;SDS011;3004;48.080;11.600;2023-08-21T10:23:08;77.60;;;2.80;;
5955;SDS011;3004;48.080;11.600;2023-08-21T10:25:40;77.70;;;2.30;;
5955;SDS011;3004;48.080;11.600;2023-08-21T10:28:07;77.27;;;2.60;;
5955;SDS011;3004;48.080;11.600;2023-08-21T10:30:36;77.87;;;3.27;;
5955;SDS011;3004;48.080;11.600;2023-08-21T10:33:05;78.43;;;2.83;;
5955;SDS011;3004;48.080;11.600;2023-08-21T10:35:32;79.40;;;3.30;;
5955;SDS011;3004;48.080;11.600;2023-08-21T10:38:19;79.57;;;2.87;;
5955;SDS011;3004;48.080;11.600;2023-08-21T10:43:38;77.50;;;2.67;;
5955;SDS011;3004;48.080;11.600;2023-08-21T10:46:05;80.80;;;3.90;;
5955;SDS011;3004;48.080;11.600;2023-08-21T10:48:32;77.50;;;2.67;;
5955;SDS011;3004;48.080;11.600;2023-08-21T10:51:02;78.80;;;3.40;;
5955;SDS011;3004;48.080;11.600;2023-08-21T10:53:32;85.27;;;3.30;;
5955;SDS011;3004;48.080;11.600;2023-08-21T10:56:00;78.17;;;3.00;;
5955;SDS011;3004;48.080;11.600;2023-08-21T10:58:33;78.40;;;2.63;;
5955;SDS011;3004;48.080;11.600;2023-08-21T11:01:01;78.97;;;3.13;;
5955;SDS011;3004;48.080;11.600;2023-08-21T11:03:28;77.77;;;2.57;;
5955;SDS011;3004;48.080;11.600;2023-08-21T11:06:02;78.20;;;3.33;;
5955;SDS011;3004;48.080;11.600;2023-08-21T11:08:33;76.47;;;2.10;;
5955;SDS011;3004;48.080;11.600;2023-08-21T11:11:01;78.90;;;2.83;;
5955;SDS011;3004;48.080;11.600;2023-08-21T11:13:29;78.77;;;2.77;;
5955;SDS011;3004;48.080;11.600;2023-08-21T11:15:57;78.57;;;4.10;;
5955;SDS011;3004;48.080;11.600;2023-08-21T11:18:29;77.80;;;2.97;;
5955;SDS011;3004;48.080;11.600;2023-08-21T11:21:10;78.03;;;2.60;;
5955;SDS011;3004;48.080;11.600;2023-08-21T11:23:39;76.60;;;2.47;;
5955;SDS011;3004;48.080;11.600;2023-08-21T11:26:09;77.77;;;2.50;;
5955;SDS011;3004;48.080;11.600;2023-08-21T11:28:38;78.50;;;3.33;;
5955;SDS011;3004;48.080;11.600;2023-08-21T11:31:05;79.20;;;3.20;;
5955;SDS011;3004;48.080;11.600;2023-08-21T11:33:33;77.47;;;2.63;;
5955;SDS011;3004;48.080;11.600;2023-08-21T11:36:00;78.27;;;3.13;;
5955;SDS011;3004;48.080;11.600;2023-08-21T11:38:27;77.00;;;3.27;;
5955;SDS011;3004;48.080;11.600;2023-08-21T11:40:56;78.40;;;3.30;;
5955;SDS011;3004;48.080;11.600;2023-08-21T11:43:33;76.97;;;2.83;;
5955;SDS011;3004;48.080;11.600;2023-08-21T11:46:03;77.30;;;2.50;;
5955;SDS011;3004;48.080;11.600;2023-08-21T11:48:30;79.00;;;3.10;;
5955;SDS011;3004;48.080;11.600;2023-08-21T11:50:58;80.50;;;3.17;;
5955;SDS011;3004;48.080;11.600;2023-08-21T11:53:32;78.67;;;3.50;;
5955;SDS011;3004;48.080;11.600;2023-08-21T11:56:02;85.10;;;3.00;;
5955;SDS011;3004;48.080;11.600;2023-08-21T11:58:29;77.87;;;2.53;;
5955;SDS011;3004;48.080;11.600;2023-08-21T12:01:01;77.70;;;2.30;;
5955;SDS011;3004;48.080;11.600;2023-08-21T12:03:29;82.17;;;3.33;;
5955;SDS011;3004;48.080;11.600;2023-08-21T12:06:03;84.03;;;3.53;;
5955;SDS011;3004;48.080;11.600;2023-08-21T12:08:31;78.27;;;2.57;;
5955;SDS011;3004;48.080;11.600;2023-08-21T12:10:58;77.60;;;2.30;;
5955;SDS011;3004;48.080;11.600;2023-08-21T12:13:27;77.40;;;2.20;;
5955;SDS011;3004;48.080;11.600;2023-08-21T12:15:55;77.97;;;2.30;;
5955;SDS011;3004;48.080;11.600;2023-08-21T12:18:22;77.43;;;2.13;;
5955;SDS011;3004;48.080;11.600;2023-08-21T12:20:58;80.73;;;2.60;;
5955;SDS011;3004;48.080;11.600;2023-08-21T12:23:26;83.07;;;2.90;;
5955;SDS011;3004;48.080;11.600;2023-08-21T12:25:53;78.90;;;2.80;;
5955;SDS011;3004;48.080;11.600;2023-08-21T12:28:20;78.27;;;2.73;;
5955;SDS011;3004;48.080;11.600;2023-08-21T12:30:48;77.80;;;3.00;;
5955;SDS011;3004;48.080;11.600;2023-08-21T12:33:15;79.13;;;3.20;;
5955;SDS011;3004;48.080;11.600;2023-08-21T12:35:42;81.07;;;3.53;;
5955;SDS011;3004;48.080;11.600;2023-08-21T12:38:10;78.30;;;2.90;;
5955;SDS011;3004;48.080;11.600;2023-08-21T12:40:38;78.33;;;3.00;;
5955;SDS011;3004;48.080;11.600;2023-08-21T12:43:05;77.97;;;2.57;;
5955;SDS011;3004;48.080;11.600;2023-08-21T12:45:32;76.80;;;2.53;;
5955;SDS011;3004;48.080;11.600;2023-08-21T12:48:01;80.37;;;3.50;;
5955;SDS011;3004;48.080;11.600;2023-08-21T12:50:29;76.10;;;2.30;;
5955;SDS011;3004;48.080;11.600;2023-08-21T12:52:56;77.87;;;2.47;;
5955;SDS011;3004;48.080;11.600;2023-08-21T12:55:23;78.77;;;3.40;;
5955;SDS011;3004;48.080;11.600;2023-08-21T12:57:50;77.90;;;2.80;;
5955;SDS011;3004;48.080;11.600;2023-08-21T13:00:17;77.60;;;2.27;;
5955;SDS011;3004;48.080;11.600;2023-08-21T13:02:44;77.57;;;2.63;;
5955;SDS011;3004;48.080;11.600;2023-08-21T13:05:16;78.07;;;2.97;;
5955;SDS011;3004;48.080;11.600;2023-08-21T13:07:43;80.80;;;2.40;;
5955;SDS011;3004;48.080;11.600;2023-08-21T13:10:10;78.10;;;2.67;;
5955;SDS011;3004;48.080;11.600;2023-08-21T13:12:38;88.27;;;4.43;;
5955;SDS011;3004;48.080;11.600;2023-08-21T13:15:05;79.40;;;3.23;;
5955;SDS011;3004;48.080;11.600;2023-08-21T13:17:33;78.07;;;2.83;;
5955;SDS011;3004;48.080;11.600;2023-08-21T13:20:00;78.40;;;3.00;;
5955;SDS011;3004;48.080;11.600;2023-08-21T13:22:29;79.70;;;2.80;;
5955;SDS011;3004;48.080;11.600;2023-08-21T13:25:10;77.87;;;2.53;;
5955;SDS011;3004;48.080;11.600;2023-08-21T13:27:37;78.10;;;2.50;;
5955;SDS011;3004;48.080;11.600;2023-08-21T13:30:05;77.80;;;2.53;;
5955;SDS011;3004;48.080;11.600;2023-08-21T13:32:33;78.43;;;3.40;;
5955;SDS011;3004;48.080;11.600;2023-08-21T13:35:00;76.97;;;2.53;;
5955;SDS011;3004;48.080;11.600;2023-08-21T13:37:31;81.90;;;2.80;;
5955;SDS011;3004;48.080;11.600;2023-08-21T13:40:00;77.30;;;2.40;;
5955;SDS011;3004;48.080;11.600;2023-08-21T13:42:34;78.17;;;2.93;;
5955;SDS011;3004;48.080;11.600;2023-08-21T13:45:06;78.43;;;2.77;;
5955;SDS011;3004;48.080;11.600;2023-08-21T13:47:37;77.70;;;2.77;;
5955;SDS011;3004;48.080;11.600;2023-08-21T13:50:07;85.07;;;3.13;;
5955;SDS011;3004;48.080;11.600;2023-08-21T13:52:37;78.07;;;3.03;;
5955;SDS011;3004;48.080;11.600;2023-08-21T13:55:04;76.57;;;2.30;;
5955;SDS011;3004;48.080;11.600;2023-08-21T13:57:32;76.90;;;2.10;;
5955;SDS011;3004;48.080;11.600;2023-08-21T13:59:59;76.53;;;2.30;;
5955;SDS011;3004;48.080;11.600;2023-08-21T14:02:26;79.30;;;3.90;;
5955;SDS011;3004;48.080;11.600;2023-08-21T14:04:56;78.47;;;2.93;;
5955;SDS011;3004;48.080;11.600;2023-08-21T14:07:23;76.00;;;2.43;;
5955;SDS011;3004;48.080;11.600;2023-08-21T14:09:51;77.10;;;2.87;;
5955;SDS011;3004;48.080;11.600;2023-08-21T14:12:19;79.80;;;3.50;;
5955;SDS011;3004;48.080;11.600;2023-08-21T14:14:45;77.87;;;3.00;;
5955;SDS011;3004;48.080;11.600;2023-08-21T14:17:12;76.87;;;2.43;;
5955;SDS011;3004;48.080;11.600;2023-08-21T14:19:42;78.00;;;3.37;;
5955;SDS011;3004;48.080;11.600;2023-08-21T14:22:09;78.27;;;2.60;;
5955;SDS011;3004;48.080;11.600;2023-08-21T14:24:36;77.77;;;2.87;;
5955;SDS011;3004;48.080;11.600;2023-08-21T14:27:04;77.20;;;3.17;;
5955;SDS011;3004;48.080;11.600;2023-08-21T14:29:31;77.80;;;2.80;;
5955;SDS011;3004;48.080;11.600;2023-08-21T14:31:58;78.33;;;2.53;;
5955;SDS011;3004;48.080;11.600;2023-08-21T14:34:26;78.73;;;3.67;;
5955;SDS011;3004;48.080;11.600;2023-08-21T14:36:53;81.37;;;3.20;;
5955;SDS011;3004;48.080;11.600;2023-08-21T14:39:21;76.77;;;2.50;;
5955;SDS011;3004;48.080;11.600;2023-08-21T14:41:53;78.57;;;2.70;;
5955;SDS011;3004;48.080;11.600;2023-08-21T14:44:24;78.23;;;2.77;;
5955;SDS011;3004;48.080;11.600;2023-08-21T14:46:54;83.23;;;3.20;;
5955;SDS011;3004;48.080;11.600;2023-08-21T14:49:21;78.17;;;3.07;;
5955;SDS011;3004;48.080;11.600;2023-08-21T14:51:48;78.67;;;2.70;;
5955;SDS011;3004;48.080;11.600;2023-08-21T14:54:17;76.80;;;2.40;;
5955;SDS011;3004;48.080;11.600;2023-08-21T14:56:44;80.90;;;3.53;;
5955;SDS011;3004;48.080;11.600;2023-08-21T14:59:11;77.53;;;3.37;;
5955;SDS011;3004;48.080;11.600;2023-08-21T15:01:41;75.70;;;2.57;;
5955;SDS011;3004;48.080;11.600;2023-08-21T15:04:08;81.57;;;3.60;;
5955;SDS011;3004;48.080;11.600;2023-08-21T15:06:37;77.67;;;3.03;;
5955;SDS011;3004;48.080;11.600;2023-08-21T15:09:06;81.40;;;3.77;;
5955;SDS011;3004;48.080;11.600;2023-08-21T15:11:34;77.90;;;3.23;;
5955;SDS011;3004;48.080;11.600;2023-08-21T15:14:01;81.17;;;3.80;;
5955;SDS011;3004;48.080;11.600;2023-08-21T15:16:29;79.20;;;3.00;;
5955;SDS011;3004;48.080;11.600;2023-08-21T15:18:57;78.67;;;3.27;;
5955;SDS011;3004;48.080;11.600;2023-08-21T15:21:24;77.37;;;2.53;;
5955;SDS011;3004;48.080;11.600;2023-08-21T15:23:51;77.40;;;2.80;;
5955;SDS011;3004;48.080;11.600;2023-08-21T15:26:19;77.40;;;2.30;;
5955;SDS011;3004;48.080;11.600;2023-08-21T15:28:46;80.10;;;3.53;;
5955;SDS011;3004;48.080;11.600;2023-08-21T15:31:13;84.53;;;3.20;;
5955;SDS011;3004;48.080;11.600;2023-08-21T15:33:40;78.60;;;3.90;;
5955;SDS011;3004;48.080;11.600;2023-08-21T15:36:09;79.30;;;3.90;;
5955;SDS011;3004;48.080;11.600;2023-08-21T15:38:36;78.30;;;2.87;;
5955;SDS011;3004;48.080;11.600;2023-08-21T15:41:03;77.77;;;2.83;;
5955;SDS011;3004;48.080;11.600;2023-08-21T15:43:30;79.60;;;3.80;;
5955;SDS011;3004;48.080;11.600;2023-08-21T15:45:57;76.23;;;2.10;;
5955;SDS011;3004;48.080;11.600;2023-08-21T15:48:24;76.80;;;2.20;;
5955;SDS011;3004;48.080;11.600;2023-08-21T15:50:53;77.50;;;2.73;;
5955;SDS011;3004;48.080;11.600;2023-08-21T15:53:21;77.63;;;2.77;;
5955;SDS011;3004;48.080;11.600;2023-08-21T15:55:48;78.07;;;3.13;;
5955;SDS011;3004;48.080;11.600;2023-08-21T15:58:15;77.73;;;2.87;;
5955;SDS011;3004;48.080;11.600;2023-08-21T16:00:42;77.87;;;2.60;;
5955;SDS011;3004;48.080;11.600;2023-08-21T16:03:09;78.53;;;2.67;;
5955;SDS011;3004;48.080;11.600;2023-08-21T16:05:36;77.97;;;3.13;;
5955;SDS011;3004;48.080;11.600;2023-08-21T16:08:03;82.83;;;3.90;;
5955;SDS011;3004;48.080;11.600;2023-08-21T16:10:32;77.70;;;3.33;;
5955;SDS011;3004;48.080;11.600;2023-08-21T16:12:59;76.17;;;2.37;;
5955;SDS011;3004;48.080;11.600;2023-08-21T16:15:27;83.70;;;2.87;;
5955;SDS011;3004;48.080;11.600;2023-08-21T16:17:54;77.80;;;2.97;;
5955;SDS011;3004;48.080;11.600;2023-08-21T16:20:21;78.23;;;2.80;;
5955;SDS011;3004;48.080;11.600;2023-08-21T16:22:49;80.30;;;2.90;;
5955;SDS011;3004;48.080;11.600;2023-08-21T16:25:16;79.20;;;2.87;;
5955;SDS011;3004;48.080;11.600;2023-08-21T16:27:44;77.30;;;2.70;;
5955;SDS011;3004;48.080;11.600;2023-08-21T16:30:12;93.43;;;2.50;;
5955;SDS011;3004;48.080;11.600;2023-08-21T16:32:39;77.63;;;2.67;;
5955;SDS011;3004;48.080;11.600;2023-08-21T16:35:07;77.67;;;2.70;;
5955;SDS011;3004;48.080;11.600;2023-08-21T16:37:34;81.37;;;4.00;;
5955;SDS011;3004;48.080;11.600;2023-08-21T16:40:02;78.50;;;3.50;;
5955;SDS011;3004;48.080;11.600;2023-08-21T16:42:33;81.47;;;3.00;;
5955;SDS011;3004;48.080;11.600;2023-08-21T16:45:02;78.37;;;3.10;;
5955;SDS011;3004;48.080;11.600;2023-08-21T16:47:30;76.30;;;2.10;;
5955;SDS011;3004;48.080;11.600;2023-08-21T16:49:59;79.17;;;3.67;;
5955;SDS011;3004;48.080;11.600;2023-08-21T16:52:29;77.97;;;2.47;;
5955;SDS011;3004;48.080;11.600;2023-08-21T16:54:59;78.47;;;3.03;;
5955;SDS011;3004;48.080;11.600;2023-08-21T16:57:26;77.10;;;2.30;;
5955;SDS011;3004;48.080;11.600;2023-08-21T16:59:56;77.20;;;2.20;;
5955;SDS011;3004;48.080;11.600;2023-08-21T17:02:29;79.30;;;2.77;;
5955;SDS011;3004;48.080;11.600;2023-08-21T17:04:59;76.27;;;2.20;;
5955;SDS011;3004;48.080;11.600;2023-08-21T17:07:30;78.07;;;2.47;;
5955;SDS011;3004;48.080;11.600;2023-08-21T17:10:03;77.83;;;2.47;;
5955;SDS011;3004;48.080;11.600;2023-08-21T17:12:33;78.57;;;2.60;;
5955;SDS011;3004;48.080;11.600;2023-08-21T17:15:03;78.37;;;2.43;;
5955;SDS011;3004;48.080;11.600;2023-08-21T17:17:35;77.87;;;2.80;;
5955;SDS011;3004;48.080;11.600;2023-08-21T17:20:02;79.10;;;3.40;;
5955;SDS011;3004;48.080;11.600;2023-08-21T17:22:30;78.87;;;3.97;;
5955;SDS011;3004;48.080;11.600;2023-08-21T17:24:57;79.30;;;3.40;;
5955;SDS011;3004;48.080;11.600;2023-08-21T17:27:24;78.30;;;3.03;;
5955;SDS011;3004;48.080;11.600;2023-08-21T17:29:53;77.93;;;2.30;;
5955;SDS011;3004;48.080;11.600;2023-08-21T17:32:20;77.00;;;2.33;;
5955;SDS011;3004;48.080;11.600;2023-08-21T17:34:49;79.97;;;3.07;;